Meath Environmental Platform

Observations for Trim Market St

Time AQI Temp °C Hum % Pres Pa CO μg/m³ H₂S μg/m³ NO μg/m³ NO₂ μg/m³ O₃ μg/m³ SO₂ μg/m³ PM1 μg/m³ PM2.5 μg/m³ PM10 μg/m³
Friday 10 July 2026
03:38 1 17.4 77 23,777 0.04 0 0 4.43 16.8 0 4.99 6.54 9.88
03:37 1 17.4 77 24,206 0.04 0 0 4.23 15.35 0 5.7 7.5 11.05
03:36 1 17.4 77 24,730 0.03 0 0 3.95 12.76 0 4.99 8.93 13.4
03:34 1 17.4 77 25,685 0.03 0 0 4.45 13.7 0 4.99 6.55 9.88
03:33 1 17.4 77 26,115 0.04 0 0 5.65 9.53 0 4.28 6.55 11.64
03:32 1 17.4 77 26,598 0.04 0 0 4.66 14.52 0 4.99 7.51 11.64
03:28 1 17.5 76 27,419 0.03 0 0.39 4.14 12.55 0 4.99 6.56 10.47
03:27 1 17.5 76 27,700 0.02 0 0 3.65 12.8 0 4.28 6.57 10.47
03:20 1 17.5 76 29,331 0.02 0 0 5.79 12.29 0 4.28 6.11 9.89
03:17 1 17.6 76 29,866 0.01 0 0 4.86 9.02 0 4.99 7.54 11.07
03:13 1 17.6 76 30,041 0.01 0 0 4.77 13.13 0 4.28 6.59 9.9
03:12 1 17.7 76 30,162 0.01 0 0 3.06 9.98 0 4.99 6.12 9.31
03:11 1 17.7 76 30,200 0.01 0 0.49 3.64 10.99 0 4.99 7.55 11.67
03:10 1 17.7 76 30,251 0.01 0 0 3.14 13.15 0 4.28 7.07 10.49
03:09 1 17.7 76 30,411 0 0 0 2.56 8.29 0 4.28 6.12 10.49
03:08 1 17.7 76 30,588 0 0 0 6.76 12.01 0 4.99 6.6 9.9
03:07 1 17.7 76 30,856 0.01 0 0 3.67 13.05 0 5.7 7.08 11.68
03:06 1 17.7 76 30,974 0 0 0 2.77 11.25 0 4.99 6.6 10.49
03:05 1 17.8 76 31,145 0 0 0 2.54 11.97 0 4.99 7.08 11.68
03:04 1 17.8 76 31,358 0.01 0 0 7.34 13.82 0 4.99 6.6 9.9